sensor_id;sensor_type;location;lat;lon;timestamp;temperature;humidity
59703;DHT22;45570;48.782;8.332;2022-08-23T05:50:12;18.20;99.90
59703;DHT22;45570;48.782;8.332;2022-08-23T05:56:44;18.40;99.90
59703;DHT22;45570;48.782;8.332;2022-08-23T05:59:14;18.50;99.90
59703;DHT22;45570;48.782;8.332;2022-08-23T06:01:45;18.60;99.90
59703;DHT22;45570;48.782;8.332;2022-08-23T06:04:18;18.50;99.90
59703;DHT22;45570;48.782;8.332;2022-08-23T06:06:47;18.60;99.90
59703;DHT22;45570;48.782;8.332;2022-08-23T06:09:17;18.70;99.90
59703;DHT22;45570;48.782;8.332;2022-08-23T06:11:48;18.80;99.90
59703;DHT22;45570;48.782;8.332;2022-08-23T06:14:18;18.90;99.90
59703;DHT22;45570;48.782;8.332;2022-08-23T06:16:48;18.90;99.90
59703;DHT22;45570;48.782;8.332;2022-08-23T06:19:25;19.00;99.90
59703;DHT22;45570;48.782;8.332;2022-08-23T06:22:17;19.10;99.90
59703;DHT22;45570;48.782;8.332;2022-08-23T06:24:47;19.10;99.90
59703;DHT22;45570;48.782;8.332;2022-08-23T06:27:17;19.20;99.90
59703;DHT22;45570;48.782;8.332;2022-08-23T06:29:47;19.30;99.90
59703;DHT22;45570;48.782;8.332;2022-08-23T06:32:45;19.40;99.90
59703;DHT22;45570;48.782;8.332;2022-08-23T06:35:47;19.50;99.90
59703;DHT22;45570;48.782;8.332;2022-08-23T06:38:25;19.70;99.90
59703;DHT22;45570;48.782;8.332;2022-08-23T06:41:14;19.90;99.90
59703;DHT22;45570;48.782;8.332;2022-08-23T06:43:51;20.00;99.90
59703;DHT22;45570;48.782;8.332;2022-08-23T06:46:31;20.10;99.90
59703;DHT22;45570;48.782;8.332;2022-08-23T06:49:00;20.30;99.90
59703;DHT22;45570;48.782;8.332;2022-08-23T06:51:33;20.40;99.90
59703;DHT22;45570;48.782;8.332;2022-08-23T06:54:18;20.50;99.90
59703;DHT22;45570;48.782;8.332;2022-08-23T06:56:58;20.80;99.90
59703;DHT22;45570;48.782;8.332;2022-08-23T06:59:31;21.00;99.90
59703;DHT22;45570;48.782;8.332;2022-08-23T07:02:01;21.30;99.90
59703;DHT22;45570;48.782;8.332;2022-08-23T07:04:48;21.50;99.90
59703;DHT22;45570;48.782;8.332;2022-08-23T07:07:29;21.70;99.90
59703;DHT22;45570;48.782;8.332;2022-08-23T07:10:13;21.90;99.90
59703;DHT22;45570;48.782;8.332;2022-08-23T07:12:43;22.20;99.90
59703;DHT22;45570;48.782;8.332;2022-08-23T07:15:13;22.40;99.90
59703;DHT22;45570;48.782;8.332;2022-08-23T07:17:44;22.70;99.90
59703;DHT22;45570;48.782;8.332;2022-08-23T07:20:13;23.10;99.90
59703;DHT22;45570;48.782;8.332;2022-08-23T07:22:44;23.50;99.90
59703;DHT22;45570;48.782;8.332;2022-08-23T07:25:13;23.80;99.90
59703;DHT22;45570;48.782;8.332;2022-08-23T07:27:47;24.00;99.90
59703;DHT22;45570;48.782;8.332;2022-08-23T07:30:20;24.30;99.90
59703;DHT22;45570;48.782;8.332;2022-08-23T07:32:50;24.60;99.90
59703;DHT22;45570;48.782;8.332;2022-08-23T07:35:25;24.90;99.20
59703;DHT22;45570;48.782;8.332;2022-08-23T07:37:57;25.10;98.60
59703;DHT22;45570;48.782;8.332;2022-08-23T07:40:32;25.50;98.30
59703;DHT22;45570;48.782;8.332;2022-08-23T07:43:06;25.70;97.60
59703;DHT22;45570;48.782;8.332;2022-08-23T07:45:38;25.90;96.00
59703;DHT22;45570;48.782;8.332;2022-08-23T07:48:10;26.30;96.90
59703;DHT22;45570;48.782;8.332;2022-08-23T07:51:07;26.50;97.00
59703;DHT22;45570;48.782;8.332;2022-08-23T07:53:38;27.00;95.40
59703;DHT22;45570;48.782;8.332;2022-08-23T07:56:15;27.40;93.90
59703;DHT22;45570;48.782;8.332;2022-08-23T07:59:13;27.50;92.50
59703;DHT22;45570;48.782;8.332;2022-08-23T08:04:45;28.10;89.30
59703;DHT22;45570;48.782;8.332;2022-08-23T08:07:14;28.10;90.40
59703;DHT22;45570;48.782;8.332;2022-08-23T08:09:54;28.40;90.00
59703;DHT22;45570;48.782;8.332;2022-08-23T08:12:24;28.80;90.50
59703;DHT22;45570;48.782;8.332;2022-08-23T08:14:56;28.70;85.20
59703;DHT22;45570;48.782;8.332;2022-08-23T08:17:34;28.70;84.00
59703;DHT22;45570;48.782;8.332;2022-08-23T08:20:32;28.50;84.50
59703;DHT22;45570;48.782;8.332;2022-08-23T08:23:25;28.90;87.60
59703;DHT22;45570;48.782;8.332;2022-08-23T08:26:15;29.30;84.60
59703;DHT22;45570;48.782;8.332;2022-08-23T08:28:51;29.50;82.70
59703;DHT22;45570;48.782;8.332;2022-08-23T08:31:23;29.50;82.50
59703;DHT22;45570;48.782;8.332;2022-08-23T08:33:55;29.30;80.90
59703;DHT22;45570;48.782;8.332;2022-08-23T08:36:30;29.80;86.10
59703;DHT22;45570;48.782;8.332;2022-08-23T08:39:00;29.40;79.80
59703;DHT22;45570;48.782;8.332;2022-08-23T08:41:45;29.60;80.60
59703;DHT22;45570;48.782;8.332;2022-08-23T08:44:36;29.90;86.30
59703;DHT22;45570;48.782;8.332;2022-08-23T08:47:09;30.00;79.80
59703;DHT22;45570;48.782;8.332;2022-08-23T08:49:46;30.20;77.80
59703;DHT22;45570;48.782;8.332;2022-08-23T08:52:21;30.10;80.10
59703;DHT22;45570;48.782;8.332;2022-08-23T08:54:54;30.20;78.30
59703;DHT22;45570;48.782;8.332;2022-08-23T08:57:24;30.10;79.60
59703;DHT22;45570;48.782;8.332;2022-08-23T08:59:58;30.30;77.80
59703;DHT22;45570;48.782;8.332;2022-08-23T09:02:32;30.30;78.20
59703;DHT22;45570;48.782;8.332;2022-08-23T09:05:07;29.90;78.00
59703;DHT22;45570;48.782;8.332;2022-08-23T09:07:45;30.10;78.00
59703;DHT22;45570;48.782;8.332;2022-08-23T09:10:28;30.50;75.40
59703;DHT22;45570;48.782;8.332;2022-08-23T09:13:33;30.20;74.40
59703;DHT22;45570;48.782;8.332;2022-08-23T09:16:13;29.50;77.30
59703;DHT22;45570;48.782;8.332;2022-08-23T09:18:45;29.70;76.60
59703;DHT22;45570;48.782;8.332;2022-08-23T09:21:15;30.10;75.90
59703;DHT22;45570;48.782;8.332;2022-08-23T09:23:46;30.10;74.90
59703;DHT22;45570;48.782;8.332;2022-08-23T09:26:37;30.30;76.40
59703;DHT22;45570;48.782;8.332;2022-08-23T09:29:21;30.90;78.00
59703;DHT22;45570;48.782;8.332;2022-08-23T09:31:51;31.00;71.90
59703;DHT22;45570;48.782;8.332;2022-08-23T09:37:19;31.40;70.70
59703;DHT22;45570;48.782;8.332;2022-08-23T09:39:51;31.20;71.00
59703;DHT22;45570;48.782;8.332;2022-08-23T09:42:29;30.80;73.30
59703;DHT22;45570;48.782;8.332;2022-08-23T09:44:58;31.20;73.30
59703;DHT22;45570;48.782;8.332;2022-08-23T09:47:32;32.20;70.00
59703;DHT22;45570;48.782;8.332;2022-08-23T09:50:22;32.30;70.40
59703;DHT22;45570;48.782;8.332;2022-08-23T09:52:58;32.80;67.00
59703;DHT22;45570;48.782;8.332;2022-08-23T09:55:34;32.50;65.30
59703;DHT22;45570;48.782;8.332;2022-08-23T09:58:06;32.10;67.10
59703;DHT22;45570;48.782;8.332;2022-08-23T10:00:45;31.70;65.90
59703;DHT22;45570;48.782;8.332;2022-08-23T10:03:29;31.30;67.10
59703;DHT22;45570;48.782;8.332;2022-08-23T10:06:09;30.70;71.00
59703;DHT22;45570;48.782;8.332;2022-08-23T10:08:51;31.30;68.10
59703;DHT22;45570;48.782;8.332;2022-08-23T10:11:24;31.50;65.60
59703;DHT22;45570;48.782;8.332;2022-08-23T10:13:56;31.60;69.20
59703;DHT22;45570;48.782;8.332;2022-08-23T10:16:36;31.90;63.60
59703;DHT22;45570;48.782;8.332;2022-08-23T10:19:18;32.20;66.90
59703;DHT22;45570;48.782;8.332;2022-08-23T10:22:00;32.80;66.60
59703;DHT22;45570;48.782;8.332;2022-08-23T10:24:40;33.20;60.90
59703;DHT22;45570;48.782;8.332;2022-08-23T10:27:27;33.00;61.70
59703;DHT22;45570;48.782;8.332;2022-08-23T10:30:20;33.00;61.30
59703;DHT22;45570;48.782;8.332;2022-08-23T10:33:00;32.70;61.40
59703;DHT22;45570;48.782;8.332;2022-08-23T10:35:45;32.80;60.10
59703;DHT22;45570;48.782;8.332;2022-08-23T10:38:37;33.10;59.50
59703;DHT22;45570;48.782;8.332;2022-08-23T10:41:24;32.90;60.20
59703;DHT22;45570;48.782;8.332;2022-08-23T10:44:04;33.20;59.10
59703;DHT22;45570;48.782;8.332;2022-08-23T10:46:40;33.10;60.00
59703;DHT22;45570;48.782;8.332;2022-08-23T10:49:12;33.70;58.70
59703;DHT22;45570;48.782;8.332;2022-08-23T10:51:45;33.90;57.10
59703;DHT22;45570;48.782;8.332;2022-08-23T10:54:31;33.70;56.70
59703;DHT22;45570;48.782;8.332;2022-08-23T10:57:16;33.20;56.60
59703;DHT22;45570;48.782;8.332;2022-08-23T10:59:49;33.10;57.50
59703;DHT22;45570;48.782;8.332;2022-08-23T11:02:29;33.00;58.40
59703;DHT22;45570;48.782;8.332;2022-08-23T11:05:22;32.80;57.90
59703;DHT22;45570;48.782;8.332;2022-08-23T11:07:58;33.00;57.40
59703;DHT22;45570;48.782;8.332;2022-08-23T11:10:32;32.90;57.10
59703;DHT22;45570;48.782;8.332;2022-08-23T11:13:05;33.10;60.20
59703;DHT22;45570;48.782;8.332;2022-08-23T11:15:42;33.60;56.50
59703;DHT22;45570;48.782;8.332;2022-08-23T11:18:36;33.70;56.80
59703;DHT22;45570;48.782;8.332;2022-08-23T11:21:09;33.60;55.80
59703;DHT22;45570;48.782;8.332;2022-08-23T11:23:52;33.10;57.90
59703;DHT22;45570;48.782;8.332;2022-08-23T11:29:40;33.20;56.30
59703;DHT22;45570;48.782;8.332;2022-08-23T11:32:43;33.10;57.70
59703;DHT22;45570;48.782;8.332;2022-08-23T11:35:37;33.20;56.00
59703;DHT22;45570;48.782;8.332;2022-08-23T11:38:11;33.20;56.40
59703;DHT22;45570;48.782;8.332;2022-08-23T11:40:57;33.30;55.50
59703;DHT22;45570;48.782;8.332;2022-08-23T11:43:34;33.60;54.50
59703;DHT22;45570;48.782;8.332;2022-08-23T11:46:32;33.50;55.40
59703;DHT22;45570;48.782;8.332;2022-08-23T11:49:36;33.80;54.80
59703;DHT22;45570;48.782;8.332;2022-08-23T11:52:22;33.60;54.20
59703;DHT22;45570;48.782;8.332;2022-08-23T11:58:13;33.50;54.10
59703;DHT22;45570;48.782;8.332;2022-08-23T12:01:01;32.90;54.80
59703;DHT22;45570;48.782;8.332;2022-08-23T12:03:40;32.80;55.30
59703;DHT22;45570;48.782;8.332;2022-08-23T12:06:40;33.20;53.80
59703;DHT22;45570;48.782;8.332;2022-08-23T12:09:56;33.30;54.60
59703;DHT22;45570;48.782;8.332;2022-08-23T12:12:30;33.60;52.50
59703;DHT22;45570;48.782;8.332;2022-08-23T12:15:07;33.50;52.30
59703;DHT22;45570;48.782;8.332;2022-08-23T12:18:07;33.60;52.00
59703;DHT22;45570;48.782;8.332;2022-08-23T12:20:41;33.40;51.40
59703;DHT22;45570;48.782;8.332;2022-08-23T12:23:19;32.80;53.40
59703;DHT22;45570;48.782;8.332;2022-08-23T12:26:05;32.90;52.90
59703;DHT22;45570;48.782;8.332;2022-08-23T12:28:39;32.90;51.80
59703;DHT22;45570;48.782;8.332;2022-08-23T12:31:16;33.00;52.20
59703;DHT22;45570;48.782;8.332;2022-08-23T12:34:01;32.60;51.10
59703;DHT22;45570;48.782;8.332;2022-08-23T12:36:38;32.30;53.20
59703;DHT22;45570;48.782;8.332;2022-08-23T12:39:22;32.20;52.40
59703;DHT22;45570;48.782;8.332;2022-08-23T12:41:55;32.20;52.40
59703;DHT22;45570;48.782;8.332;2022-08-23T12:44:27;31.90;52.60
59703;DHT22;45570;48.782;8.332;2022-08-23T12:47:11;32.10;53.10
59703;DHT22;45570;48.782;8.332;2022-08-23T12:49:41;32.00;52.70
59703;DHT22;45570;48.782;8.332;2022-08-23T12:52:11;31.80;54.30
59703;DHT22;45570;48.782;8.332;2022-08-23T12:54:42;31.90;53.30
59703;DHT22;45570;48.782;8.332;2022-08-23T12:57:16;32.50;52.70
59703;DHT22;45570;48.782;8.332;2022-08-23T12:59:50;32.90;50.80
59703;DHT22;45570;48.782;8.332;2022-08-23T13:02:48;33.40;50.30
59703;DHT22;45570;48.782;8.332;2022-08-23T13:05:22;33.90;49.90
59703;DHT22;45570;48.782;8.332;2022-08-23T13:07:55;34.30;49.30
59703;DHT22;45570;48.782;8.332;2022-08-23T13:10:24;34.60;48.60
59703;DHT22;45570;48.782;8.332;2022-08-23T13:12:53;33.80;48.80
59703;DHT22;45570;48.782;8.332;2022-08-23T13:15:42;34.00;49.30
59703;DHT22;45570;48.782;8.332;2022-08-23T13:18:23;34.40;47.30
59703;DHT22;45570;48.782;8.332;2022-08-23T13:21:16;34.60;48.10
59703;DHT22;45570;48.782;8.332;2022-08-23T13:23:47;33.90;46.80
59703;DHT22;45570;48.782;8.332;2022-08-23T13:26:35;33.40;49.00
59703;DHT22;45570;48.782;8.332;2022-08-23T13:29:12;33.40;49.10
59703;DHT22;45570;48.782;8.332;2022-08-23T13:31:49;33.90;47.20
59703;DHT22;45570;48.782;8.332;2022-08-23T13:34:36;33.80;48.90
59703;DHT22;45570;48.782;8.332;2022-08-23T13:37:20;33.90;47.40
59703;DHT22;45570;48.782;8.332;2022-08-23T13:39:52;33.30;47.60
59703;DHT22;45570;48.782;8.332;2022-08-23T13:42:31;33.10;48.00
59703;DHT22;45570;48.782;8.332;2022-08-23T13:45:10;33.20;47.30
59703;DHT22;45570;48.782;8.332;2022-08-23T13:47:45;32.70;48.30
59703;DHT22;45570;48.782;8.332;2022-08-23T13:50:21;32.70;47.80
59703;DHT22;45570;48.782;8.332;2022-08-23T13:52:50;33.00;47.10
59703;DHT22;45570;48.782;8.332;2022-08-23T13:55:43;33.30;45.70
59703;DHT22;45570;48.782;8.332;2022-08-23T13:58:16;33.40;45.50
59703;DHT22;45570;48.782;8.332;2022-08-23T14:00:51;33.40;46.10
59703;DHT22;45570;48.782;8.332;2022-08-23T14:03:22;33.80;46.00
59703;DHT22;45570;48.782;8.332;2022-08-23T14:05:51;33.80;44.80
59703;DHT22;45570;48.782;8.332;2022-08-23T14:08:20;33.50;44.90
59703;DHT22;45570;48.782;8.332;2022-08-23T14:10:50;33.20;45.60
59703;DHT22;45570;48.782;8.332;2022-08-23T14:13:20;32.90;46.30
59703;DHT22;45570;48.782;8.332;2022-08-23T14:15:51;32.70;46.40
59703;DHT22;45570;48.782;8.332;2022-08-23T14:18:22;32.50;46.80
59703;DHT22;45570;48.782;8.332;2022-08-23T14:20:51;32.30;46.40
59703;DHT22;45570;48.782;8.332;2022-08-23T14:23:20;32.20;47.00
59703;DHT22;45570;48.782;8.332;2022-08-23T14:25:53;32.30;46.90
59703;DHT22;45570;48.782;8.332;2022-08-23T14:28:27;32.60;45.00
59703;DHT22;45570;48.782;8.332;2022-08-23T14:30:57;33.10;44.30
59703;DHT22;45570;48.782;8.332;2022-08-23T14:33:26;32.90;44.80
59703;DHT22;45570;48.782;8.332;2022-08-23T14:35:55;32.70;45.90
59703;DHT22;45570;48.782;8.332;2022-08-23T14:38:23;32.40;45.30
59703;DHT22;45570;48.782;8.332;2022-08-23T14:40:56;32.10;45.30
59703;DHT22;45570;48.782;8.332;2022-08-23T14:43:26;31.80;46.10
59703;DHT22;45570;48.782;8.332;2022-08-23T14:45:55;31.80;47.00
59703;DHT22;45570;48.782;8.332;2022-08-23T14:48:24;31.70;46.40
59703;DHT22;45570;48.782;8.332;2022-08-23T14:50:54;31.60;46.40
59703;DHT22;45570;48.782;8.332;2022-08-23T14:53:26;31.40;45.90
59703;DHT22;45570;48.782;8.332;2022-08-23T14:55:56;31.50;46.90
59703;DHT22;45570;48.782;8.332;2022-08-23T14:58:46;31.80;46.00
59703;DHT22;45570;48.782;8.332;2022-08-23T15:01:15;32.30;45.60
59703;DHT22;45570;48.782;8.332;2022-08-23T15:03:45;32.30;44.70
59703;DHT22;45570;48.782;8.332;2022-08-23T15:06:16;32.50;45.50
59703;DHT22;45570;48.782;8.332;2022-08-23T15:08:46;32.80;44.60
59703;DHT22;45570;48.782;8.332;2022-08-23T15:11:16;32.90;45.00
59703;DHT22;45570;48.782;8.332;2022-08-23T15:14:08;32.60;44.00
59703;DHT22;45570;48.782;8.332;2022-08-23T15:16:37;32.40;44.10
59703;DHT22;45570;48.782;8.332;2022-08-23T15:19:06;32.10;44.80
59703;DHT22;45570;48.782;8.332;2022-08-23T15:21:34;32.20;44.60
59703;DHT22;45570;48.782;8.332;2022-08-23T15:24:03;32.20;44.80
59703;DHT22;45570;48.782;8.332;2022-08-23T15:26:34;32.10;45.00
59703;DHT22;45570;48.782;8.332;2022-08-23T15:29:03;31.90;45.00
59703;DHT22;45570;48.782;8.332;2022-08-23T15:31:32;31.80;45.30
59703;DHT22;45570;48.782;8.332;2022-08-23T15:34:01;32.00;45.70
59703;DHT22;45570;48.782;8.332;2022-08-23T15:36:40;32.20;45.50
59703;DHT22;45570;48.782;8.332;2022-08-23T15:39:09;32.20;45.00
59703;DHT22;45570;48.782;8.332;2022-08-23T15:41:39;32.10;45.00
59703;DHT22;45570;48.782;8.332;2022-08-23T15:44:07;32.10;45.40
59703;DHT22;45570;48.782;8.332;2022-08-23T15:46:36;32.10;45.20
59703;DHT22;45570;48.782;8.332;2022-08-23T15:49:11;32.20;45.20
59703;DHT22;45570;48.782;8.332;2022-08-23T15:51:40;32.30;45.40
59703;DHT22;45570;48.782;8.332;2022-08-23T15:54:09;32.20;44.30
59703;DHT22;45570;48.782;8.332;2022-08-23T15:56:42;32.40;45.30
59703;DHT22;45570;48.782;8.332;2022-08-23T15:59:12;32.60;44.40
59703;DHT22;45570;48.782;8.332;2022-08-23T16:01:41;32.60;43.60
59703;DHT22;45570;48.782;8.332;2022-08-23T16:04:11;33.00;43.10
59703;DHT22;45570;48.782;8.332;2022-08-23T16:06:40;32.70;42.70
59703;DHT22;45570;48.782;8.332;2022-08-23T16:09:16;32.50;43.30
59703;DHT22;45570;48.782;8.332;2022-08-23T16:11:47;32.10;43.30
59703;DHT22;45570;48.782;8.332;2022-08-23T16:14:16;31.90;43.20
59703;DHT22;45570;48.782;8.332;2022-08-23T16:16:44;32.00;44.90
59703;DHT22;45570;48.782;8.332;2022-08-23T16:19:14;32.20;43.60
59703;DHT22;45570;48.782;8.332;2022-08-23T16:21:47;32.20;43.10
59703;DHT22;45570;48.782;8.332;2022-08-23T16:24:17;32.00;43.00
59703;DHT22;45570;48.782;8.332;2022-08-23T16:26:52;31.80;43.60
59703;DHT22;45570;48.782;8.332;2022-08-23T16:29:21;31.70;43.30
59703;DHT22;45570;48.782;8.332;2022-08-23T16:31:50;31.60;44.40
59703;DHT22;45570;48.782;8.332;2022-08-23T16:34:19;31.50;44.50
59703;DHT22;45570;48.782;8.332;2022-08-23T16:36:52;31.30;44.50
59703;DHT22;45570;48.782;8.332;2022-08-23T16:39:23;31.30;44.00
59703;DHT22;45570;48.782;8.332;2022-08-23T16:41:53;31.10;43.20
59703;DHT22;45570;48.782;8.332;2022-08-23T16:44:22;31.10;45.10
59703;DHT22;45570;48.782;8.332;2022-08-23T16:46:51;30.80;45.10
59703;DHT22;45570;48.782;8.332;2022-08-23T16:49:20;30.70;45.10
59703;DHT22;45570;48.782;8.332;2022-08-23T16:51:49;30.50;46.70
59703;DHT22;45570;48.782;8.332;2022-08-23T16:54:19;30.50;45.60
59703;DHT22;45570;48.782;8.332;2022-08-23T16:56:47;30.30;46.30
59703;DHT22;45570;48.782;8.332;2022-08-23T16:59:17;30.20;46.60
59703;DHT22;45570;48.782;8.332;2022-08-23T17:01:49;30.00;48.50
59703;DHT22;45570;48.782;8.332;2022-08-23T17:04:18;29.90;47.40
59703;DHT22;45570;48.782;8.332;2022-08-23T17:06:47;29.80;46.20
59703;DHT22;45570;48.782;8.332;2022-08-23T17:09:16;29.80;45.60
59703;DHT22;45570;48.782;8.332;2022-08-23T17:11:45;29.70;46.00
59703;DHT22;45570;48.782;8.332;2022-08-23T17:14:14;29.80;49.10
59703;DHT22;45570;48.782;8.332;2022-08-23T17:16:44;29.70;48.90
59703;DHT22;45570;48.782;8.332;2022-08-23T17:19:13;29.60;46.90
59703;DHT22;45570;48.782;8.332;2022-08-23T17:21:42;29.70;47.80
59703;DHT22;45570;48.782;8.332;2022-08-23T17:24:11;29.60;47.80
59703;DHT22;45570;48.782;8.332;2022-08-23T17:26:39;29.40;47.90
59703;DHT22;45570;48.782;8.332;2022-08-23T17:29:08;29.30;48.00
59703;DHT22;45570;48.782;8.332;2022-08-23T17:31:38;29.20;47.90
59703;DHT22;45570;48.782;8.332;2022-08-23T17:34:08;29.10;48.80
59703;DHT22;45570;48.782;8.332;2022-08-23T17:36:39;29.00;48.50
59703;DHT22;45570;48.782;8.332;2022-08-23T17:39:15;28.90;49.80
59703;DHT22;45570;48.782;8.332;2022-08-23T17:41:44;28.60;49.50
59703;DHT22;45570;48.782;8.332;2022-08-23T17:44:13;28.50;48.70
59703;DHT22;45570;48.782;8.332;2022-08-23T17:46:44;28.30;50.50
59703;DHT22;45570;48.782;8.332;2022-08-23T17:49:17;28.10;51.40
59703;DHT22;45570;48.782;8.332;2022-08-23T17:51:46;27.90;51.20
59703;DHT22;45570;48.782;8.332;2022-08-23T17:54:15;27.70;51.90
59703;DHT22;45570;48.782;8.332;2022-08-23T17:56:44;27.60;51.10
59703;DHT22;45570;48.782;8.332;2022-08-23T17:59:17;27.50;52.60
59703;DHT22;45570;48.782;8.332;2022-08-23T18:01:45;27.20;52.00
59703;DHT22;45570;48.782;8.332;2022-08-23T18:04:16;27.20;52.70
59703;DHT22;45570;48.782;8.332;2022-08-23T18:06:45;27.00;53.10
59703;DHT22;45570;48.782;8.332;2022-08-23T18:09:14;26.90;53.10
59703;DHT22;45570;48.782;8.332;2022-08-23T18:11:43;26.70;53.00
59703;DHT22;45570;48.782;8.332;2022-08-23T18:14:11;26.60;53.40
59703;DHT22;45570;48.782;8.332;2022-08-23T18:16:40;26.50;53.50
59703;DHT22;45570;48.782;8.332;2022-08-23T18:19:12;26.20;54.70
59703;DHT22;45570;48.782;8.332;2022-08-23T18:21:42;26.00;55.50
59703;DHT22;45570;48.782;8.332;2022-08-23T18:24:12;25.70;57.00
59703;DHT22;45570;48.782;8.332;2022-08-23T18:26:40;25.30;56.90
59703;DHT22;45570;48.782;8.332;2022-08-23T18:29:26;25.10;57.10
59703;DHT22;45570;48.782;8.332;2022-08-23T18:31:55;24.90;58.40
59703;DHT22;45570;48.782;8.332;2022-08-23T18:34:24;24.70;59.30
59703;DHT22;45570;48.782;8.332;2022-08-23T18:36:54;24.50;59.70
59703;DHT22;45570;48.782;8.332;2022-08-23T18:39:23;24.20;59.80
59703;DHT22;45570;48.782;8.332;2022-08-23T18:41:58;24.00;61.20
59703;DHT22;45570;48.782;8.332;2022-08-23T18:44:27;23.70;62.50
59703;DHT22;45570;48.782;8.332;2022-08-23T18:46:56;23.60;61.90
59703;DHT22;45570;48.782;8.332;2022-08-23T18:49:25;23.50;62.60
59703;DHT22;45570;48.782;8.332;2022-08-23T18:51:55;23.60;61.50
59703;DHT22;45570;48.782;8.332;2022-08-23T18:54:24;23.30;62.90
59703;DHT22;45570;48.782;8.332;2022-08-23T18:56:57;23.10;64.40
59703;DHT22;45570;48.782;8.332;2022-08-23T18:59:26;23.00;64.60
59703;DHT22;45570;48.782;8.332;2022-08-23T19:01:55;22.80;66.30
59703;DHT22;45570;48.782;8.332;2022-08-23T19:04:25;22.70;66.60
59703;DHT22;45570;48.782;8.332;2022-08-23T19:06:55;22.50;67.50
59703;DHT22;45570;48.782;8.332;2022-08-23T19:09:24;22.40;67.80
59703;DHT22;45570;48.782;8.332;2022-08-23T19:11:53;22.20;67.80
59703;DHT22;45570;48.782;8.332;2022-08-23T19:14:22;22.10;69.10
59703;DHT22;45570;48.782;8.332;2022-08-23T19:16:50;22.00;70.00
59703;DHT22;45570;48.782;8.332;2022-08-23T19:19:19;21.90;70.40
59703;DHT22;45570;48.782;8.332;2022-08-23T19:21:48;21.70;72.10
59703;DHT22;45570;48.782;8.332;2022-08-23T19:24:18;21.90;69.80
59703;DHT22;45570;48.782;8.332;2022-08-23T19:26:47;21.70;70.40
59703;DHT22;45570;48.782;8.332;2022-08-23T19:29:16;21.50;72.30
59703;DHT22;45570;48.782;8.332;2022-08-23T19:31:46;21.40;74.50
59703;DHT22;45570;48.782;8.332;2022-08-23T19:34:18;21.10;74.60
59703;DHT22;45570;48.782;8.332;2022-08-23T19:36:48;21.10;75.40
59703;DHT22;45570;48.782;8.332;2022-08-23T19:39:28;21.00;75.80
59703;DHT22;45570;48.782;8.332;2022-08-23T19:41:57;21.00;76.70
59703;DHT22;45570;48.782;8.332;2022-08-23T19:44:26;20.80;77.60
59703;DHT22;45570;48.782;8.332;2022-08-23T19:46:55;20.70;78.30
59703;DHT22;45570;48.782;8.332;2022-08-23T19:49:23;20.60;78.70
59703;DHT22;45570;48.782;8.332;2022-08-23T19:51:52;20.60;79.20
59703;DHT22;45570;48.782;8.332;2022-08-23T19:54:21;20.60;78.90
59703;DHT22;45570;48.782;8.332;2022-08-23T19:56:54;20.60;79.30
59703;DHT22;45570;48.782;8.332;2022-08-23T19:59:26;20.70;78.30
59703;DHT22;45570;48.782;8.332;2022-08-23T20:01:57;20.60;79.10
59703;DHT22;45570;48.782;8.332;2022-08-23T20:04:28;20.50;79.90
59703;DHT22;45570;48.782;8.332;2022-08-23T20:06:57;20.50;79.00
59703;DHT22;45570;48.782;8.332;2022-08-23T20:09:28;20.50;79.90
59703;DHT22;45570;48.782;8.332;2022-08-23T20:11:59;20.70;80.30
59703;DHT22;45570;48.782;8.332;2022-08-23T20:14:29;20.50;80.30
59703;DHT22;45570;48.782;8.332;2022-08-23T20:16:59;20.50;82.50
59703;DHT22;45570;48.782;8.332;2022-08-23T20:19:30;20.40;83.20
59703;DHT22;45570;48.782;8.332;2022-08-23T20:21:59;20.30;83.00
59703;DHT22;45570;48.782;8.332;2022-08-23T20:27:29;20.40;84.10
59703;DHT22;45570;48.782;8.332;2022-08-23T20:29:58;20.40;83.70
59703;DHT22;45570;48.782;8.332;2022-08-23T20:32:28;20.40;83.90
59703;DHT22;45570;48.782;8.332;2022-08-23T20:34:57;20.30;84.60
59703;DHT22;45570;48.782;8.332;2022-08-23T20:37:26;20.20;84.90
59703;DHT22;45570;48.782;8.332;2022-08-23T20:39:54;20.10;85.80
